San Benito, California
Current Conditions -  °F | °C
As of 4:53 PM on Tuesday 21 Oct 2014 (Local Time) from KSNS Reporting Station
Clear Clear  
Wind Chill: 68°   Ceiling: Unl
Heat Index: 68°   Visibility: 10mi
Dew Point: 50°   Wind: 15mph
Humidity: 52%   Direction: 260°W
Pressure: 30.01"   Gusts: NA
Location:  36.4824°N, 120.948°W
Report Text: KSNS 212353Z 26013KT 10SM CLR 20/10 A3001 RMK AO2 SLP170 T02000100 10222 20189 55001
Loading
Personal Weather Stations






























Interactive Weather Map
Tropical Storm Tracking
New forecast layout! Learn more

10-Day Weather Forecast

Advertisements
Track Severe Weather on mobile